TimePDT,TemperatureF,Dew PointF,Humidity,Sea Level PressureIn,VisibilityMPH,Wind Direction,Wind SpeedMPH,Gust SpeedMPH,PrecipitationIn,Events,Conditions,WindDirDegrees,DateUTC
12:56 AM,57.0,45.0,64,30.01,10.0,Calm,Calm,-,N/A,,Clear,0,2013-09-12 07:56:00
1:56 AM,54.0,45.0,72,30.01,10.0,Calm,Calm,-,N/A,,Clear,0,2013-09-12 08:56:00
2:56 AM,53.1,45.0,74,30.00,10.0,Calm,Calm,-,N/A,,Clear,0,2013-09-12 09:56:00
3:56 AM,52.0,45.0,77,29.99,10.0,Calm,Calm,-,N/A,,Clear,0,2013-09-12 10:56:00
4:56 AM,51.1,45.0,80,30.01,10.0,Calm,Calm,-,N/A,,Clear,0,2013-09-12 11:56:00
5:56 AM,50.0,46.0,86,30.02,10.0,Calm,Calm,-,N/A,,Clear,0,2013-09-12 12:56:00
6:56 AM,53.1,46.9,80,30.04,10.0,Calm,Calm,-,N/A,,Scattered Clouds,0,2013-09-12 13:56:00
7:56 AM,57.0,48.0,72,30.04,10.0,Calm,Calm,-,N/A,,Clear,0,2013-09-12 14:56:00
8:56 AM,62.1,52.0,70,30.03,10.0,Calm,Calm,-,N/A,,Clear,0,2013-09-12 15:56:00
9:56 AM,71.1,51.1,49,30.03,10.0,Variable,3.5,-,N/A,,Scattered Clouds,0,2013-09-12 16:56:00
10:56 AM,73.9,54.0,50,30.03,10.0,Calm,Calm,-,N/A,,Mostly Cloudy,0,2013-09-12 17:56:00
11:56 AM,73.9,55.9,53,30.03,10.0,Calm,Calm,-,N/A,,Overcast,0,2013-09-12 18:56:00
12:56 PM,79.0,50.0,36,30.01,10.0,Calm,Calm,-,N/A,,Partly Cloudy,0,2013-09-12 19:56:00
1:56 PM,86.0,51.1,30,29.98,10.0,Calm,Calm,-,N/A,,Clear,0,2013-09-12 20:56:00
2:56 PM,90.0,45.0,21,29.94,10.0,Calm,Calm,-,N/A,,Partly Cloudy,0,2013-09-12 21:56:00
3:56 PM,89.1,46.9,23,29.94,10.0,Variable,4.6,-,N/A,,Clear,0,2013-09-12 22:56:00
4:56 PM,86.0,48.9,28,29.93,10.0,Calm,Calm,-,N/A,,Clear,0,2013-09-12 23:56:00
5:56 PM,81.0,51.1,35,29.94,10.0,Calm,Calm,-,N/A,,Scattered Clouds,0,2013-09-13 00:56:00
6:56 PM,75.9,52.0,43,29.95,10.0,Calm,Calm,-,N/A,,Clear,0,2013-09-13 01:56:00
7:56 PM,71.1,52.0,51,29.96,10.0,NE,3.5,-,N/A,,Clear,50,2013-09-13 02:56:00
8:56 PM,68.0,51.1,55,29.98,10.0,Calm,Calm,-,N/A,,Clear,0,2013-09-13 03:56:00
9:56 PM,66.0,48.0,52,29.97,10.0,Calm,Calm,-,N/A,,Clear,0,2013-09-13 04:56:00
10:56 PM,62.1,48.0,60,29.99,10.0,Calm,Calm,-,N/A,,Clear,0,2013-09-13 05:56:00
11:56 PM,61.0,48.0,62,29.99,10.0,ENE,3.5,-,N/A,,Clear,60,2013-09-13 06:56:00